sensor_id;sensor_type;location;lat;lon;timestamp;temperature;humidity
43581;DHT22;29175;51.030;4.606;2023-08-06T00:00:29;16.30;99.90
43581;DHT22;29175;51.030;4.606;2023-08-06T00:02:56;16.30;99.90
43581;DHT22;29175;51.030;4.606;2023-08-06T00:05:21;16.30;99.90
43581;DHT22;29175;51.030;4.606;2023-08-06T00:07:48;16.40;99.90
43581;DHT22;29175;51.030;4.606;2023-08-06T00:10:16;16.50;99.90
43581;DHT22;29175;51.030;4.606;2023-08-06T00:12:44;16.30;99.90
43581;DHT22;29175;51.030;4.606;2023-08-06T00:15:11;16.10;99.90
43581;DHT22;29175;51.030;4.606;2023-08-06T00:17:38;16.00;99.90
43581;DHT22;29175;51.030;4.606;2023-08-06T00:20:04;15.90;99.90
43581;DHT22;29175;51.030;4.606;2023-08-06T00:22:36;15.80;99.90
43581;DHT22;29175;51.030;4.606;2023-08-06T00:25:05;15.90;99.90
43581;DHT22;29175;51.030;4.606;2023-08-06T00:27:33;15.90;99.90
43581;DHT22;29175;51.030;4.606;2023-08-06T00:29:58;16.00;99.90
43581;DHT22;29175;51.030;4.606;2023-08-06T00:32:24;16.10;99.90
43581;DHT22;29175;51.030;4.606;2023-08-06T00:34:50;16.20;99.90
43581;DHT22;29175;51.030;4.606;2023-08-06T00:37:17;16.30;99.90
43581;DHT22;29175;51.030;4.606;2023-08-06T00:39:43;16.40;99.90
43581;DHT22;29175;51.030;4.606;2023-08-06T00:42:10;16.50;99.90
43581;DHT22;29175;51.030;4.606;2023-08-06T00:44:38;16.40;99.90
43581;DHT22;29175;51.030;4.606;2023-08-06T00:47:04;16.30;99.90
43581;DHT22;29175;51.030;4.606;2023-08-06T00:49:31;16.40;99.90
43581;DHT22;29175;51.030;4.606;2023-08-06T00:51:57;16.40;99.90
43581;DHT22;29175;51.030;4.606;2023-08-06T00:54:24;16.40;99.90
43581;DHT22;29175;51.030;4.606;2023-08-06T00:56:50;16.30;99.90
43581;DHT22;29175;51.030;4.606;2023-08-06T00:59:16;16.40;99.90
43581;DHT22;29175;51.030;4.606;2023-08-06T01:01:43;16.50;99.90
43581;DHT22;29175;51.030;4.606;2023-08-06T01:04:10;16.40;99.90
43581;DHT22;29175;51.030;4.606;2023-08-06T01:06:44;16.20;99.90
43581;DHT22;29175;51.030;4.606;2023-08-06T01:09:43;16.40;99.90
43581;DHT22;29175;51.030;4.606;2023-08-06T01:12:37;16.50;99.90
43581;DHT22;29175;51.030;4.606;2023-08-06T01:15:07;16.50;99.90
43581;DHT22;29175;51.030;4.606;2023-08-06T01:17:36;16.50;99.90
43581;DHT22;29175;51.030;4.606;2023-08-06T01:20:03;16.50;99.90
43581;DHT22;29175;51.030;4.606;2023-08-06T01:22:29;16.50;99.90
43581;DHT22;29175;51.030;4.606;2023-08-06T01:24:56;16.60;99.90
43581;DHT22;29175;51.030;4.606;2023-08-06T01:27:37;16.60;99.90
43581;DHT22;29175;51.030;4.606;2023-08-06T01:30:46;16.30;99.90
43581;DHT22;29175;51.030;4.606;2023-08-06T01:32:59;16.40;99.90
43581;DHT22;29175;51.030;4.606;2023-08-06T01:35:27;16.50;99.90
43581;DHT22;29175;51.030;4.606;2023-08-06T01:37:54;16.40;99.90
43581;DHT22;29175;51.030;4.606;2023-08-06T01:40:21;16.20;99.90
43581;DHT22;29175;51.030;4.606;2023-08-06T01:42:47;16.30;99.90
43581;DHT22;29175;51.030;4.606;2023-08-06T01:45:14;16.30;99.90
43581;DHT22;29175;51.030;4.606;2023-08-06T01:47:40;16.30;99.90
43581;DHT22;29175;51.030;4.606;2023-08-06T01:50:06;16.30;99.90
43581;DHT22;29175;51.030;4.606;2023-08-06T01:52:33;16.30;99.90
43581;DHT22;29175;51.030;4.606;2023-08-06T01:54:58;16.20;99.90
43581;DHT22;29175;51.030;4.606;2023-08-06T01:57:24;16.20;99.90
43581;DHT22;29175;51.030;4.606;2023-08-06T01:59:50;16.10;99.90
43581;DHT22;29175;51.030;4.606;2023-08-06T02:02:16;16.20;99.90
43581;DHT22;29175;51.030;4.606;2023-08-06T02:04:42;16.30;99.90
43581;DHT22;29175;51.030;4.606;2023-08-06T02:07:08;16.50;99.90
43581;DHT22;29175;51.030;4.606;2023-08-06T02:09:33;16.50;99.90
43581;DHT22;29175;51.030;4.606;2023-08-06T02:12:01;16.60;99.90
43581;DHT22;29175;51.030;4.606;2023-08-06T02:14:28;16.50;99.90
43581;DHT22;29175;51.030;4.606;2023-08-06T02:16:55;16.30;99.90
43581;DHT22;29175;51.030;4.606;2023-08-06T02:19:23;16.30;99.90
43581;DHT22;29175;51.030;4.606;2023-08-06T02:21:49;16.30;99.90
43581;DHT22;29175;51.030;4.606;2023-08-06T02:24:15;16.30;99.90
43581;DHT22;29175;51.030;4.606;2023-08-06T02:26:41;16.50;99.90
43581;DHT22;29175;51.030;4.606;2023-08-06T02:29:07;16.60;99.90
43581;DHT22;29175;51.030;4.606;2023-08-06T02:31:33;16.70;99.90
43581;DHT22;29175;51.030;4.606;2023-08-06T02:33:58;16.60;99.90
43581;DHT22;29175;51.030;4.606;2023-08-06T02:36:24;16.60;99.90
43581;DHT22;29175;51.030;4.606;2023-08-06T02:38:50;16.50;99.90
43581;DHT22;29175;51.030;4.606;2023-08-06T02:41:16;16.50;99.90
43581;DHT22;29175;51.030;4.606;2023-08-06T02:43:42;16.60;99.90
43581;DHT22;29175;51.030;4.606;2023-08-06T02:46:08;16.60;99.90
43581;DHT22;29175;51.030;4.606;2023-08-06T02:48:34;16.60;99.90
43581;DHT22;29175;51.030;4.606;2023-08-06T02:51:01;16.70;99.90
43581;DHT22;29175;51.030;4.606;2023-08-06T02:53:27;16.80;99.90
43581;DHT22;29175;51.030;4.606;2023-08-06T02:55:53;16.70;99.90
43581;DHT22;29175;51.030;4.606;2023-08-06T02:58:20;16.70;99.90
43581;DHT22;29175;51.030;4.606;2023-08-06T03:01:06;16.70;99.90
43581;DHT22;29175;51.030;4.606;2023-08-06T03:03:32;16.60;99.90
43581;DHT22;29175;51.030;4.606;2023-08-06T03:05:59;16.70;99.90
43581;DHT22;29175;51.030;4.606;2023-08-06T03:08:25;16.70;99.90
43581;DHT22;29175;51.030;4.606;2023-08-06T03:10:51;16.80;99.90
43581;DHT22;29175;51.030;4.606;2023-08-06T03:13:18;16.80;99.90
43581;DHT22;29175;51.030;4.606;2023-08-06T03:15:56;16.90;99.90
43581;DHT22;29175;51.030;4.606;2023-08-06T03:18:22;16.80;99.90
43581;DHT22;29175;51.030;4.606;2023-08-06T03:20:52;16.60;99.90
43581;DHT22;29175;51.030;4.606;2023-08-06T03:23:18;16.70;99.90
43581;DHT22;29175;51.030;4.606;2023-08-06T03:25:44;16.40;99.90
43581;DHT22;29175;51.030;4.606;2023-08-06T03:28:11;16.40;99.90
43581;DHT22;29175;51.030;4.606;2023-08-06T03:30:38;16.40;99.90
43581;DHT22;29175;51.030;4.606;2023-08-06T03:33:04;16.40;99.90
43581;DHT22;29175;51.030;4.606;2023-08-06T03:35:30;16.60;99.90
43581;DHT22;29175;51.030;4.606;2023-08-06T03:37:57;16.50;99.90
43581;DHT22;29175;51.030;4.606;2023-08-06T03:40:23;16.40;99.90
43581;DHT22;29175;51.030;4.606;2023-08-06T03:42:50;16.40;99.90
43581;DHT22;29175;51.030;4.606;2023-08-06T03:45:16;16.50;99.90
43581;DHT22;29175;51.030;4.606;2023-08-06T03:47:42;16.60;99.90
43581;DHT22;29175;51.030;4.606;2023-08-06T03:50:08;16.50;99.90
43581;DHT22;29175;51.030;4.606;2023-08-06T03:52:36;16.60;99.90
43581;DHT22;29175;51.030;4.606;2023-08-06T03:55:03;16.60;99.90
43581;DHT22;29175;51.030;4.606;2023-08-06T03:57:29;16.60;99.90
43581;DHT22;29175;51.030;4.606;2023-08-06T03:59:56;16.60;99.90
43581;DHT22;29175;51.030;4.606;2023-08-06T04:02:23;16.50;99.90
43581;DHT22;29175;51.030;4.606;2023-08-06T04:04:49;16.60;99.90
43581;DHT22;29175;51.030;4.606;2023-08-06T04:07:15;16.60;99.90
43581;DHT22;29175;51.030;4.606;2023-08-06T04:10:00;16.50;99.90
43581;DHT22;29175;51.030;4.606;2023-08-06T04:12:27;16.50;99.90
43581;DHT22;29175;51.030;4.606;2023-08-06T04:14:55;16.30;99.90
43581;DHT22;29175;51.030;4.606;2023-08-06T04:17:21;16.20;99.90
43581;DHT22;29175;51.030;4.606;2023-08-06T04:19:51;16.10;99.90
43581;DHT22;29175;51.030;4.606;2023-08-06T04:22:17;15.90;99.90
43581;DHT22;29175;51.030;4.606;2023-08-06T04:24:43;15.80;99.90
43581;DHT22;29175;51.030;4.606;2023-08-06T04:27:11;15.60;99.90
43581;DHT22;29175;51.030;4.606;2023-08-06T04:29:38;15.70;99.90
43581;DHT22;29175;51.030;4.606;2023-08-06T04:32:07;15.70;99.90
43581;DHT22;29175;51.030;4.606;2023-08-06T04:34:33;15.60;99.90
43581;DHT22;29175;51.030;4.606;2023-08-06T04:37:00;15.50;99.90
43581;DHT22;29175;51.030;4.606;2023-08-06T04:39:26;15.50;99.90
43581;DHT22;29175;51.030;4.606;2023-08-06T04:41:53;15.40;99.90
43581;DHT22;29175;51.030;4.606;2023-08-06T04:44:20;15.40;99.90
43581;DHT22;29175;51.030;4.606;2023-08-06T04:46:46;15.40;99.90
43581;DHT22;29175;51.030;4.606;2023-08-06T04:49:12;15.20;99.90
43581;DHT22;29175;51.030;4.606;2023-08-06T04:51:37;15.10;99.90
43581;DHT22;29175;51.030;4.606;2023-08-06T04:54:05;15.00;99.90
43581;DHT22;29175;51.030;4.606;2023-08-06T04:56:30;14.90;99.90
43581;DHT22;29175;51.030;4.606;2023-08-06T04:58:58;14.80;99.90
43581;DHT22;29175;51.030;4.606;2023-08-06T05:01:24;14.70;99.90
43581;DHT22;29175;51.030;4.606;2023-08-06T05:03:49;14.60;99.90
43581;DHT22;29175;51.030;4.606;2023-08-06T05:06:15;14.60;99.90
43581;DHT22;29175;51.030;4.606;2023-08-06T05:08:41;14.40;99.90
43581;DHT22;29175;51.030;4.606;2023-08-06T05:11:06;14.30;99.90
43581;DHT22;29175;51.030;4.606;2023-08-06T05:13:32;14.30;99.90
43581;DHT22;29175;51.030;4.606;2023-08-06T05:15:58;14.20;99.90
43581;DHT22;29175;51.030;4.606;2023-08-06T05:18:24;14.30;99.90
43581;DHT22;29175;51.030;4.606;2023-08-06T05:20:49;14.30;99.90
43581;DHT22;29175;51.030;4.606;2023-08-06T05:23:15;14.30;99.90
43581;DHT22;29175;51.030;4.606;2023-08-06T05:25:42;14.40;99.90
43581;DHT22;29175;51.030;4.606;2023-08-06T05:28:08;14.40;99.90
43581;DHT22;29175;51.030;4.606;2023-08-06T05:30:34;14.40;99.90
43581;DHT22;29175;51.030;4.606;2023-08-06T05:33:02;14.40;99.90
43581;DHT22;29175;51.030;4.606;2023-08-06T05:35:28;14.50;99.90
43581;DHT22;29175;51.030;4.606;2023-08-06T05:37:54;14.50;99.90
43581;DHT22;29175;51.030;4.606;2023-08-06T05:40:20;14.50;99.90
43581;DHT22;29175;51.030;4.606;2023-08-06T05:42:46;14.50;99.90
43581;DHT22;29175;51.030;4.606;2023-08-06T05:45:12;14.50;99.90
43581;DHT22;29175;51.030;4.606;2023-08-06T05:47:38;14.60;99.90
43581;DHT22;29175;51.030;4.606;2023-08-06T05:50:05;14.60;99.90
43581;DHT22;29175;51.030;4.606;2023-08-06T05:52:32;14.60;99.90
43581;DHT22;29175;51.030;4.606;2023-08-06T05:54:58;14.70;99.90
43581;DHT22;29175;51.030;4.606;2023-08-06T05:57:23;14.70;99.90
43581;DHT22;29175;51.030;4.606;2023-08-06T05:59:49;14.70;99.90
43581;DHT22;29175;51.030;4.606;2023-08-06T06:02:16;14.70;99.90
43581;DHT22;29175;51.030;4.606;2023-08-06T06:04:44;14.60;99.90
43581;DHT22;29175;51.030;4.606;2023-08-06T06:07:10;14.60;99.90
43581;DHT22;29175;51.030;4.606;2023-08-06T06:09:36;14.60;99.90
43581;DHT22;29175;51.030;4.606;2023-08-06T06:12:03;14.60;99.90
43581;DHT22;29175;51.030;4.606;2023-08-06T06:14:28;14.60;99.90
43581;DHT22;29175;51.030;4.606;2023-08-06T06:16:55;14.60;99.90
43581;DHT22;29175;51.030;4.606;2023-08-06T06:19:27;14.70;99.90
43581;DHT22;29175;51.030;4.606;2023-08-06T06:21:53;14.70;99.90
43581;DHT22;29175;51.030;4.606;2023-08-06T06:24:19;14.80;99.90
43581;DHT22;29175;51.030;4.606;2023-08-06T06:26:46;14.80;99.90
43581;DHT22;29175;51.030;4.606;2023-08-06T06:29:12;14.90;99.90
43581;DHT22;29175;51.030;4.606;2023-08-06T06:31:38;14.80;99.90
43581;DHT22;29175;51.030;4.606;2023-08-06T06:34:05;14.90;99.90
43581;DHT22;29175;51.030;4.606;2023-08-06T06:36:32;14.90;99.90
43581;DHT22;29175;51.030;4.606;2023-08-06T06:38:58;15.00;99.90
43581;DHT22;29175;51.030;4.606;2023-08-06T06:41:25;14.90;99.90
43581;DHT22;29175;51.030;4.606;2023-08-06T06:43:53;15.00;99.90
43581;DHT22;29175;51.030;4.606;2023-08-06T06:46:19;15.00;99.90
43581;DHT22;29175;51.030;4.606;2023-08-06T06:48:45;15.00;99.90
43581;DHT22;29175;51.030;4.606;2023-08-06T06:51:11;15.10;99.90
43581;DHT22;29175;51.030;4.606;2023-08-06T06:53:38;15.00;99.90
43581;DHT22;29175;51.030;4.606;2023-08-06T06:56:04;15.00;99.90
43581;DHT22;29175;51.030;4.606;2023-08-06T06:58:31;15.00;99.90
43581;DHT22;29175;51.030;4.606;2023-08-06T07:01:00;15.10;99.90
43581;DHT22;29175;51.030;4.606;2023-08-06T07:03:27;15.20;99.90
43581;DHT22;29175;51.030;4.606;2023-08-06T07:05:57;15.20;99.90
43581;DHT22;29175;51.030;4.606;2023-08-06T07:08:26;15.20;99.90
43581;DHT22;29175;51.030;4.606;2023-08-06T07:11:00;15.30;99.90
43581;DHT22;29175;51.030;4.606;2023-08-06T07:13:30;15.30;99.90
43581;DHT22;29175;51.030;4.606;2023-08-06T07:15:56;15.40;99.90
43581;DHT22;29175;51.030;4.606;2023-08-06T07:18:24;15.50;99.90
43581;DHT22;29175;51.030;4.606;2023-08-06T07:20:53;15.50;99.90
43581;DHT22;29175;51.030;4.606;2023-08-06T07:23:25;15.50;99.90
43581;DHT22;29175;51.030;4.606;2023-08-06T07:25:51;15.60;99.90
43581;DHT22;29175;51.030;4.606;2023-08-06T07:28:17;15.70;99.90
43581;DHT22;29175;51.030;4.606;2023-08-06T07:30:44;15.40;99.90
43581;DHT22;29175;51.030;4.606;2023-08-06T07:33:11;15.50;99.90
43581;DHT22;29175;51.030;4.606;2023-08-06T07:35:38;15.60;99.90
43581;DHT22;29175;51.030;4.606;2023-08-06T07:38:05;15.60;99.90
43581;DHT22;29175;51.030;4.606;2023-08-06T07:40:31;15.60;99.90
43581;DHT22;29175;51.030;4.606;2023-08-06T07:42:57;15.50;99.90
43581;DHT22;29175;51.030;4.606;2023-08-06T07:45:24;15.50;99.90
43581;DHT22;29175;51.030;4.606;2023-08-06T07:47:50;15.50;99.90
43581;DHT22;29175;51.030;4.606;2023-08-06T07:50:16;15.50;99.90
43581;DHT22;29175;51.030;4.606;2023-08-06T07:52:42;15.60;99.90
43581;DHT22;29175;51.030;4.606;2023-08-06T07:55:08;15.70;99.90
43581;DHT22;29175;51.030;4.606;2023-08-06T07:57:33;15.80;99.90
43581;DHT22;29175;51.030;4.606;2023-08-06T08:00:00;15.80;99.90
43581;DHT22;29175;51.030;4.606;2023-08-06T08:02:26;15.90;99.90
43581;DHT22;29175;51.030;4.606;2023-08-06T08:04:52;16.10;99.90
43581;DHT22;29175;51.030;4.606;2023-08-06T08:07:18;16.30;99.90
43581;DHT22;29175;51.030;4.606;2023-08-06T08:09:44;16.50;99.90
43581;DHT22;29175;51.030;4.606;2023-08-06T08:12:10;16.60;99.90
43581;DHT22;29175;51.030;4.606;2023-08-06T08:14:36;16.70;99.90
43581;DHT22;29175;51.030;4.606;2023-08-06T08:17:03;16.80;99.90
43581;DHT22;29175;51.030;4.606;2023-08-06T08:19:30;16.80;99.90
43581;DHT22;29175;51.030;4.606;2023-08-06T08:21:55;16.80;99.90
43581;DHT22;29175;51.030;4.606;2023-08-06T08:24:22;16.80;99.90
43581;DHT22;29175;51.030;4.606;2023-08-06T08:26:51;16.90;99.90
43581;DHT22;29175;51.030;4.606;2023-08-06T08:29:17;16.80;99.90
43581;DHT22;29175;51.030;4.606;2023-08-06T08:31:43;16.70;99.90
43581;DHT22;29175;51.030;4.606;2023-08-06T08:34:10;16.60;99.90
43581;DHT22;29175;51.030;4.606;2023-08-06T08:36:35;16.80;99.90
43581;DHT22;29175;51.030;4.606;2023-08-06T08:39:02;16.70;99.90
43581;DHT22;29175;51.030;4.606;2023-08-06T08:41:31;16.70;99.90
43581;DHT22;29175;51.030;4.606;2023-08-06T08:43:58;16.50;99.90
43581;DHT22;29175;51.030;4.606;2023-08-06T08:46:27;16.20;99.90
43581;DHT22;29175;51.030;4.606;2023-08-06T08:48:54;16.20;99.90
43581;DHT22;29175;51.030;4.606;2023-08-06T08:51:20;16.00;99.90
43581;DHT22;29175;51.030;4.606;2023-08-06T08:53:47;15.90;99.90
43581;DHT22;29175;51.030;4.606;2023-08-06T08:56:16;15.80;99.90
43581;DHT22;29175;51.030;4.606;2023-08-06T08:58:41;15.50;99.90
43581;DHT22;29175;51.030;4.606;2023-08-06T09:01:07;15.50;99.90
43581;DHT22;29175;51.030;4.606;2023-08-06T09:03:35;15.50;99.90
43581;DHT22;29175;51.030;4.606;2023-08-06T09:06:02;15.50;99.90
43581;DHT22;29175;51.030;4.606;2023-08-06T09:08:49;15.50;99.90
43581;DHT22;29175;51.030;4.606;2023-08-06T09:11:16;15.40;99.90
43581;DHT22;29175;51.030;4.606;2023-08-06T09:13:42;15.60;99.90
43581;DHT22;29175;51.030;4.606;2023-08-06T09:16:08;15.80;99.90
43581;DHT22;29175;51.030;4.606;2023-08-06T09:18:34;16.00;99.90
43581;DHT22;29175;51.030;4.606;2023-08-06T09:20:59;16.30;99.90
43581;DHT22;29175;51.030;4.606;2023-08-06T09:23:30;16.40;99.90
43581;DHT22;29175;51.030;4.606;2023-08-06T09:25:56;16.30;99.90
43581;DHT22;29175;51.030;4.606;2023-08-06T09:28:22;16.30;99.90
43581;DHT22;29175;51.030;4.606;2023-08-06T09:30:50;16.30;99.90
43581;DHT22;29175;51.030;4.606;2023-08-06T09:33:19;16.40;99.90
43581;DHT22;29175;51.030;4.606;2023-08-06T09:35:46;16.40;99.90
43581;DHT22;29175;51.030;4.606;2023-08-06T09:38:12;16.30;99.90
43581;DHT22;29175;51.030;4.606;2023-08-06T09:40:40;16.20;99.90
43581;DHT22;29175;51.030;4.606;2023-08-06T09:43:06;16.20;99.90
43581;DHT22;29175;51.030;4.606;2023-08-06T09:45:36;16.10;99.90
43581;DHT22;29175;51.030;4.606;2023-08-06T09:48:07;15.90;99.90
43581;DHT22;29175;51.030;4.606;2023-08-06T09:50:35;15.70;99.90
43581;DHT22;29175;51.030;4.606;2023-08-06T09:53:06;15.60;99.90
43581;DHT22;29175;51.030;4.606;2023-08-06T09:55:32;15.40;99.90
43581;DHT22;29175;51.030;4.606;2023-08-06T09:57:59;15.40;99.90
43581;DHT22;29175;51.030;4.606;2023-08-06T10:00:25;15.40;99.90
43581;DHT22;29175;51.030;4.606;2023-08-06T10:02:52;15.40;99.90
43581;DHT22;29175;51.030;4.606;2023-08-06T10:05:21;15.50;99.90
43581;DHT22;29175;51.030;4.606;2023-08-06T10:07:49;15.40;99.90
43581;DHT22;29175;51.030;4.606;2023-08-06T10:10:16;15.30;99.90
43581;DHT22;29175;51.030;4.606;2023-08-06T10:12:55;15.10;99.90
43581;DHT22;29175;51.030;4.606;2023-08-06T10:15:25;15.10;99.90
43581;DHT22;29175;51.030;4.606;2023-08-06T10:17:54;15.10;99.90
43581;DHT22;29175;51.030;4.606;2023-08-06T10:20:21;15.10;99.90
43581;DHT22;29175;51.030;4.606;2023-08-06T10:23:00;15.20;99.90
43581;DHT22;29175;51.030;4.606;2023-08-06T10:25:26;15.20;99.90
43581;DHT22;29175;51.030;4.606;2023-08-06T10:27:55;15.20;99.90
43581;DHT22;29175;51.030;4.606;2023-08-06T10:32:52;15.20;99.90
43581;DHT22;29175;51.030;4.606;2023-08-06T10:38:17;15.50;99.90
43581;DHT22;29175;51.030;4.606;2023-08-06T10:41:00;15.60;99.90
43581;DHT22;29175;51.030;4.606;2023-08-06T10:43:30;15.50;99.90
43581;DHT22;29175;51.030;4.606;2023-08-06T10:45:59;15.40;99.90
43581;DHT22;29175;51.030;4.606;2023-08-06T10:48:35;15.40;99.90
43581;DHT22;29175;51.030;4.606;2023-08-06T10:51:09;15.10;99.90
43581;DHT22;29175;51.030;4.606;2023-08-06T10:53:35;15.30;99.90
43581;DHT22;29175;51.030;4.606;2023-08-06T10:56:11;15.30;99.90
43581;DHT22;29175;51.030;4.606;2023-08-06T10:58:37;15.40;99.90
43581;DHT22;29175;51.030;4.606;2023-08-06T11:01:03;15.30;99.90
43581;DHT22;29175;51.030;4.606;2023-08-06T11:03:32;15.30;99.90
43581;DHT22;29175;51.030;4.606;2023-08-06T11:05:58;15.50;99.90
43581;DHT22;29175;51.030;4.606;2023-08-06T11:08:29;15.70;99.90
43581;DHT22;29175;51.030;4.606;2023-08-06T11:10:55;15.90;99.90
43581;DHT22;29175;51.030;4.606;2023-08-06T11:13:32;15.90;99.90
43581;DHT22;29175;51.030;4.606;2023-08-06T11:15:58;16.20;99.90
43581;DHT22;29175;51.030;4.606;2023-08-06T11:18:24;16.20;99.90
43581;DHT22;29175;51.030;4.606;2023-08-06T11:20:50;16.40;99.90
43581;DHT22;29175;51.030;4.606;2023-08-06T11:23:16;16.50;99.90
43581;DHT22;29175;51.030;4.606;2023-08-06T11:25:45;16.50;99.90
43581;DHT22;29175;51.030;4.606;2023-08-06T11:28:12;16.40;99.90
43581;DHT22;29175;51.030;4.606;2023-08-06T11:30:38;16.30;99.90
43581;DHT22;29175;51.030;4.606;2023-08-06T11:33:06;15.90;99.90
43581;DHT22;29175;51.030;4.606;2023-08-06T11:35:35;15.70;99.90
43581;DHT22;29175;51.030;4.606;2023-08-06T11:38:01;15.70;99.90
43581;DHT22;29175;51.030;4.606;2023-08-06T11:40:27;15.80;99.90
43581;DHT22;29175;51.030;4.606;2023-08-06T11:42:53;16.00;99.90
43581;DHT22;29175;51.030;4.606;2023-08-06T11:45:22;16.00;99.90
43581;DHT22;29175;51.030;4.606;2023-08-06T11:47:52;16.10;99.90
43581;DHT22;29175;51.030;4.606;2023-08-06T11:50:25;16.20;99.90
43581;DHT22;29175;51.030;4.606;2023-08-06T11:52:57;16.10;99.90
43581;DHT22;29175;51.030;4.606;2023-08-06T11:55:24;16.00;99.90
43581;DHT22;29175;51.030;4.606;2023-08-06T11:57:51;15.90;99.90
43581;DHT22;29175;51.030;4.606;2023-08-06T12:00:17;16.00;99.90
43581;DHT22;29175;51.030;4.606;2023-08-06T12:02:47;16.10;99.90
43581;DHT22;29175;51.030;4.606;2023-08-06T12:07:45;16.50;99.90
43581;DHT22;29175;51.030;4.606;2023-08-06T12:10:15;16.50;99.90
43581;DHT22;29175;51.030;4.606;2023-08-06T12:12:42;16.60;99.90
43581;DHT22;29175;51.030;4.606;2023-08-06T12:15:09;16.30;99.90
43581;DHT22;29175;51.030;4.606;2023-08-06T12:17:35;16.10;99.90
43581;DHT22;29175;51.030;4.606;2023-08-06T12:20:02;15.90;99.90
43581;DHT22;29175;51.030;4.606;2023-08-06T12:22:30;15.80;99.90
43581;DHT22;29175;51.030;4.606;2023-08-06T12:25:04;15.80;99.90
43581;DHT22;29175;51.030;4.606;2023-08-06T12:27:33;15.90;99.90
43581;DHT22;29175;51.030;4.606;2023-08-06T12:29:59;15.90;99.90
43581;DHT22;29175;51.030;4.606;2023-08-06T12:32:25;15.70;99.90
43581;DHT22;29175;51.030;4.606;2023-08-06T12:34:51;15.70;99.90
43581;DHT22;29175;51.030;4.606;2023-08-06T12:37:16;15.50;99.90
43581;DHT22;29175;51.030;4.606;2023-08-06T12:39:43;15.60;99.90
43581;DHT22;29175;51.030;4.606;2023-08-06T12:42:09;15.60;99.90
43581;DHT22;29175;51.030;4.606;2023-08-06T12:44:36;15.60;99.90
43581;DHT22;29175;51.030;4.606;2023-08-06T12:47:02;15.60;99.90
43581;DHT22;29175;51.030;4.606;2023-08-06T12:49:28;15.50;99.90
43581;DHT22;29175;51.030;4.606;2023-08-06T12:51:55;15.50;99.90
43581;DHT22;29175;51.030;4.606;2023-08-06T12:54:23;15.60;99.90
43581;DHT22;29175;51.030;4.606;2023-08-06T12:56:50;15.60;99.90
43581;DHT22;29175;51.030;4.606;2023-08-06T12:59:17;15.50;99.90
43581;DHT22;29175;51.030;4.606;2023-08-06T13:01:44;15.60;99.90
43581;DHT22;29175;51.030;4.606;2023-08-06T13:04:10;15.70;99.90
43581;DHT22;29175;51.030;4.606;2023-08-06T13:06:39;15.30;99.90
43581;DHT22;29175;51.030;4.606;2023-08-06T13:09:07;15.60;99.90
43581;DHT22;29175;51.030;4.606;2023-08-06T13:11:34;15.70;99.90
43581;DHT22;29175;51.030;4.606;2023-08-06T13:14:10;15.60;99.90
43581;DHT22;29175;51.030;4.606;2023-08-06T13:16:38;15.70;99.90
43581;DHT22;29175;51.030;4.606;2023-08-06T13:19:06;15.40;99.90
43581;DHT22;29175;51.030;4.606;2023-08-06T13:24:09;15.30;99.90
43581;DHT22;29175;51.030;4.606;2023-08-06T13:26:35;15.10;99.90
43581;DHT22;29175;51.030;4.606;2023-08-06T13:29:06;15.00;99.90
43581;DHT22;29175;51.030;4.606;2023-08-06T13:31:33;14.90;99.90
43581;DHT22;29175;51.030;4.606;2023-08-06T13:33:58;14.90;99.90
43581;DHT22;29175;51.030;4.606;2023-08-06T13:36:28;14.90;99.90
43581;DHT22;29175;51.030;4.606;2023-08-06T13:38:57;14.80;99.90
43581;DHT22;29175;51.030;4.606;2023-08-06T13:41:23;14.60;99.90
43581;DHT22;29175;51.030;4.606;2023-08-06T13:43:48;14.60;99.90
43581;DHT22;29175;51.030;4.606;2023-08-06T13:46:17;14.60;99.90
43581;DHT22;29175;51.030;4.606;2023-08-06T13:48:47;14.60;99.90
43581;DHT22;29175;51.030;4.606;2023-08-06T13:51:13;14.60;99.90
43581;DHT22;29175;51.030;4.606;2023-08-06T13:53:40;14.50;99.90
43581;DHT22;29175;51.030;4.606;2023-08-06T13:56:06;14.40;99.90
43581;DHT22;29175;51.030;4.606;2023-08-06T13:58:33;14.40;99.90
43581;DHT22;29175;51.030;4.606;2023-08-06T14:01:00;14.50;99.90
43581;DHT22;29175;51.030;4.606;2023-08-06T14:03:26;14.50;99.90
43581;DHT22;29175;51.030;4.606;2023-08-06T14:05:52;14.60;99.90
43581;DHT22;29175;51.030;4.606;2023-08-06T14:08:21;14.60;99.90
43581;DHT22;29175;51.030;4.606;2023-08-06T14:10:47;14.60;99.90
43581;DHT22;29175;51.030;4.606;2023-08-06T14:13:14;14.60;99.90
43581;DHT22;29175;51.030;4.606;2023-08-06T14:15:40;14.60;99.90
43581;DHT22;29175;51.030;4.606;2023-08-06T14:18:07;14.70;99.90
43581;DHT22;29175;51.030;4.606;2023-08-06T14:20:36;14.60;99.90
43581;DHT22;29175;51.030;4.606;2023-08-06T14:23:02;14.60;99.90
43581;DHT22;29175;51.030;4.606;2023-08-06T14:25:29;14.60;99.90
43581;DHT22;29175;51.030;4.606;2023-08-06T14:27:55;14.70;99.90
43581;DHT22;29175;51.030;4.606;2023-08-06T14:30:22;14.70;99.90
43581;DHT22;29175;51.030;4.606;2023-08-06T14:32:48;14.80;99.90
43581;DHT22;29175;51.030;4.606;2023-08-06T14:35:15;14.80;99.90
43581;DHT22;29175;51.030;4.606;2023-08-06T14:37:42;14.90;99.90
43581;DHT22;29175;51.030;4.606;2023-08-06T14:40:09;15.00;99.90
43581;DHT22;29175;51.030;4.606;2023-08-06T14:42:35;15.10;99.90
43581;DHT22;29175;51.030;4.606;2023-08-06T14:45:01;15.10;99.90
43581;DHT22;29175;51.030;4.606;2023-08-06T14:47:29;15.20;99.90
43581;DHT22;29175;51.030;4.606;2023-08-06T14:49:54;15.20;99.90
43581;DHT22;29175;51.030;4.606;2023-08-06T14:52:20;15.10;99.90
43581;DHT22;29175;51.030;4.606;2023-08-06T14:54:46;14.90;99.90
43581;DHT22;29175;51.030;4.606;2023-08-06T14:57:13;14.80;99.90
43581;DHT22;29175;51.030;4.606;2023-08-06T14:59:39;14.90;99.90
43581;DHT22;29175;51.030;4.606;2023-08-06T15:02:06;15.10;99.90
43581;DHT22;29175;51.030;4.606;2023-08-06T15:04:32;15.30;99.90
43581;DHT22;29175;51.030;4.606;2023-08-06T15:06:58;15.50;99.90
43581;DHT22;29175;51.030;4.606;2023-08-06T15:09:23;15.50;99.90
43581;DHT22;29175;51.030;4.606;2023-08-06T15:11:49;15.50;99.90
43581;DHT22;29175;51.030;4.606;2023-08-06T15:14:16;15.60;99.90
43581;DHT22;29175;51.030;4.606;2023-08-06T15:16:42;15.80;99.90
43581;DHT22;29175;51.030;4.606;2023-08-06T15:19:08;16.00;99.90
43581;DHT22;29175;51.030;4.606;2023-08-06T15:21:33;15.80;99.90
43581;DHT22;29175;51.030;4.606;2023-08-06T15:23:59;15.70;99.90
43581;DHT22;29175;51.030;4.606;2023-08-06T15:26:27;15.90;99.90
43581;DHT22;29175;51.030;4.606;2023-08-06T15:28:52;15.90;99.90
43581;DHT22;29175;51.030;4.606;2023-08-06T15:31:21;15.90;99.90
43581;DHT22;29175;51.030;4.606;2023-08-06T15:33:47;15.90;99.90
43581;DHT22;29175;51.030;4.606;2023-08-06T15:36:13;16.00;99.90
43581;DHT22;29175;51.030;4.606;2023-08-06T15:38:39;15.90;99.90
43581;DHT22;29175;51.030;4.606;2023-08-06T15:41:05;16.00;99.90